International Falls, Minnesota
Current Conditions -  °F | °C
As of 9:55 PM on Monday 20 Oct 2014 (Local Time) from KINL Reporting Station
Overcast Overcast  
Wind Chill:   Ceiling: 2200
Heat Index:   Visibility: 10mi
Dew Point:   Wind: 6mph
Humidity: 73%   Direction: 70°ENE
Pressure: 30.12"   Gusts: NA
Location:  48.6°N, 93.4°W
Report Text: KINL 210255Z AUTO 07005KT 10SM OVC022 07/02 A3012 RMK AO2 SLP209 T00670022 53009
Loading
Personal Weather Stations






























Interactive Weather Map New forecast layout! Learn more

10-Day Weather Forecast

Advertisements
Track Severe Weather on mobile